Airfield :
LOGIN :

Register | Disclaimer

   EN    FR    IT 

 










Legend :    VFR   Marginal VFR   IFR   Intensive IFR   Very Intensive IFR
Visi :
Ceiling :
>= 8 km
>= 3000ft
5 to 8 km
1000 to 3000 ft
1500m to 5 km
500 to 1000 ft
800 to 1500m
200 to 500 ft
< 800m
< 200 ft
Symbols :   Thunderstorms  Fog  Heavy snow  Heavy precipitations  Wind > 20 kt
SIGMETs :     Misc.  Thunderstorms  Icing  Turbulence  Mountain Waves  Volcanic Ashes






- Airport Elevation : 586 ft


LIMN - Cameri Air Force Base

CURRENT METAR :
  • 241255Z 16005KT 8000 SCT060 07/00 Q1026 RMK BKN SCT100 VIS MIN 8000 BLU

EXPIRED METARs :
  • 241155Z VRB02KT 8000 SCT060 07/M01 Q1026 RMK BKN SCT100 VIS MIN 8000 BLU
  • 241055Z VRB01KT 8000 FEW040 05/M01 Q1027 RMK BKN SCT080 VIS MIN 8000 BLU

TAF TAF LIMN
Valid from the 24 at 12:00 until the 24 at 21:00 UTC


241100Z 2412/2421 VRB03KT 7000 NSC
TEMPO 2412/2421 5000 BR
PROB30
TEMPO 2418/2421 3000 BR BKN015



MET'MAP, your aeronautical weather chart ! - Copyright ORBIFLY December 2007 - Disclaimer

ORBIFLY MET'MAP TEAM :

Programming & Development : Alexandra Zaïnal
Concept & original design : Baudouin d'Aumeries
Assistance for programming : Marc-Olivier Méhu
Technical & hardware support : Manuel Goepfert

Contact : metmap@orbifly.com




SOURCES & CREDITS :

   NOAA